This is the latest recevied weather packets stored in our database for station/object K1BES. If no packets are shown the sender has not sent any weather packets the latest 10 day(s).
| Time | Temp. | Humidity | Pressure | Rain* | Wind** | Luminosity | Snow |
|---|---|---|---|---|---|---|---|
| 1787410435 | 32.78° C | 65% | 1019.9 hPa | 0 mm | - | 781 W/m² | - |
| 1787410129 | 32.78° C | 67% | 1020 hPa | 0 mm | - | 563 W/m² | - |
| 1787409826 | 33.33° C | 66% | 1020.2 hPa | 0 mm | - | 217 W/m² | - |
| 1787409521 | 33.33° C | 65% | 1019.9 hPa | 0 mm | - | 239 W/m² | - |
| 1787409217 | 33.33° C | 66% | 1019.7 hPa | 0 mm | - | 550 W/m² | - |
| 1787408913 | 33.89° C | 64% | 1019.8 hPa | 0 mm | - | 384 W/m² | - |
| 1787408303 | 33.33° C | 64% | 1019.7 hPa | 0 mm | - | 579 W/m² | - |
| 1787407999 | 33.33° C | 64% | 1019.6 hPa | 0 mm | - | 561 W/m² | - |
| 1787407694 | 33.33° C | 66% | 1019.6 hPa | 0 mm | - | 577 W/m² | - |
| 1787407390 | 32.78° C | 67% | 1019.6 hPa | 0 mm | - | 564 W/m² | - |
| 1787407085 | 32.22° C | 68% | 1019.6 hPa | 0 mm | - | 567 W/m² | - |
| 1787406781 | 31.11° C | 73% | 1019.4 hPa | 0 mm | - | 547 W/m² | - |
| 1787406481 | 31.11° C | 75% | 1019.4 hPa | 0 mm | - | 219 W/m² | - |
| 1787406178 | 30.56° C | 75% | 1019.2 hPa | 0 mm | - | 302 W/m² | - |
| 1787405873 | 30.56° C | 74% | 1019.2 hPa | 0 mm | - | 125 W/m² | - |
| 1787405570 | 30.56° C | 74% | 1019.1 hPa | 0 mm | - | 124 W/m² | - |
| 1787405269 | 31.11° C | 73% | 1019.1 hPa | 0 mm | - | 117 W/m² | - |
| 1787404966 | 31.11° C | 73% | 1019.1 hPa | 0 mm | - | 121 W/m² | - |
| 1787404661 | 30.56° C | 74% | 1019 hPa | 0 mm | - | 187 W/m² | - |
| 1787404361 | 31.11° C | 74% | 1018.9 hPa | 0 mm | - | 139 W/m² | - |
| 1787404057 | 31.11° C | 74% | 1019.1 hPa | 0 mm | - | 214 W/m² | - |
| 1787403751 | 31.11° C | 74% | 1019 hPa | 0 mm | - | 196 W/m² | - |
| 1787403451 | 31.11° C | 74% | 1018.8 hPa | 0 mm | - | 181 W/m² | - |
| 1787403147 | 30.56° C | 77% | 1019.1 hPa | 0 mm | - | 196 W/m² | - |
| 1787402843 | 29.44° C | 81% | 1018.9 hPa | 0 mm | - | 239 W/m² | - |
* Rain latest hour (hover to see other rain measurements)
** Current wind speed in m/s (hover to see current wind gust speed)